Time;durP1;ratioP1;P1;durP2;ratioP2;P2;SDS_P1;SDS_P2;PMS_P1;PMS_P2;Temp;Humidity;BMP_temperature;BMP_pressure;BME280_temperature;BME280_humidity;BME280_pressure;Samples;Min_cycle;Max_cycle;Signal;HPM_P1;HPM_P2
2021/06/25 00:01:33;;;;;;;;;;;;;;;-144.31;100.00;74371.41;5019968;28;20483;-74
2021/06/25 00:04:01;;;;;;;;;;;;;;;-144.31;100.00;74379.38;5021788;28;19932;-73
2021/06/25 00:06:26;;;;;;;;;;;;;;;-144.31;100.00;74379.38;5018405;28;19936;-74
2021/06/25 00:08:52;;;;;;;;;;;;;;;-144.31;100.00;74403.34;5022116;28;20379;-74
2021/06/25 00:11:19;;;;;;;;;;;;;;;-144.31;100.00;74387.38;5020225;28;20276;-73
2021/06/25 00:13:45;;;;;;;;;;;;;;;-144.31;100.00;74391.38;5025599;28;20295;-73
2021/06/25 00:16:10;;;;;;;;;;;;;;;-144.31;100.00;74371.41;5023741;28;20371;-73
2021/06/25 00:18:38;;;;;;;;;;;;;;;-144.31;100.00;74379.38;5025202;28;20351;-73
2021/06/25 00:21:04;;;;;;;;;;;;;;;-144.31;100.00;74383.38;5003054;28;19932;-73
2021/06/25 00:23:29;;;;;;;;;;;;;;;-144.31;100.00;74379.38;5020332;28;19921;-73
2021/06/25 00:25:55;;;;;;;;;;;;;;;-144.31;100.00;74371.41;5020094;28;19994;-73
2021/06/25 00:28:20;;;;;;;;;;;;;;;-144.31;100.00;74391.38;5020308;28;19920;-73
2021/06/25 00:30:46;;;;;;;;;;;;;;;-144.31;100.00;74395.38;5017782;28;19940;-73
2021/06/25 00:33:11;;;;;;;;;;;;;;;-144.31;100.00;74379.38;5016813;28;19921;-74
2021/06/25 00:35:37;;;;;;;;;;;;;;;-144.31;100.00;74357.44;5024953;28;19928;-73
2021/06/25 00:38:06;;;;;;;;;;;;;;;-144.31;100.00;74363.41;5029769;28;19916;-73
2021/06/25 00:40:32;;;;;;;;;;;;;;;-144.31;100.00;74351.44;5037780;28;19921;-73
2021/06/25 00:42:57;;;;;;;;;;;;;;;-144.31;100.00;74351.44;5028612;28;20221;-74
2021/06/25 00:45:23;;;;;;;;;;;;;;;-144.31;100.00;74357.44;5026369;28;19930;-74
2021/06/25 00:47:50;;;;;;;;;;;;;;;-144.31;100.00;74371.41;5030528;28;20007;-74
2021/06/25 00:50:36;;;;;;;;;;;;;;;-144.31;100.00;74371.41;5023520;28;20047;-73
2021/06/25 00:53:03;;;;;;;;;;;;;;;-144.31;100.00;74375.41;5025348;28;19918;-75
2021/06/25 00:55:42;;;;;;;;;;;;;;;-144.31;100.00;74367.41;5028116;28;19921;-74
2021/06/25 00:58:15;;;;;;;;;;;;;;;-144.31;100.00;74379.38;5023263;28;19917;-73
2021/06/25 01:00:41;;;;;;;;;;;;;;;-144.31;100.00;74369.41;5029696;28;19921;-74
2021/06/25 01:03:09;;;;;;;;;;;;;;;-144.31;100.00;74353.44;5021354;28;19921;-73
2021/06/25 01:05:34;;;;;;;;;;;;;;;-144.31;100.00;74357.44;5019112;28;20024;-75
2021/06/25 01:08:00;;;;;;;;;;;;;;;-144.31;100.00;74367.41;5023211;28;20490;-73
2021/06/25 01:10:26;;;;;;;;;;;;;;;-144.31;100.00;74355.44;5021644;28;20386;-73
2021/06/25 01:12:51;;;;;;;;;;;;;;;-144.31;100.00;74339.44;5023796;28;19921;-74
2021/06/25 01:15:17;;;;;;;;;;;;;;;-144.31;100.00;74323.47;5026460;28;19968;-74
2021/06/25 01:17:43;;;;;;;;;;;;;;;-144.31;100.00;74329.47;5021345;28;20294;-74
2021/06/25 01:20:11;;;;;;;;;;;;;;;-144.31;100.00;74307.50;5021645;28;19928;-75
2021/06/25 01:22:39;;;;;;;;;;;;;;;-144.31;100.00;74309.50;5024498;28;19928;-74
2021/06/25 01:25:06;;;;;;;;;;;;;;;-144.31;100.00;74317.50;5022613;28;19925;-74
2021/06/25 01:27:32;;;;;;;;;;;;;;;-144.31;100.00;74289.53;5022392;28;19928;-74
2021/06/25 01:29:58;;;;;;;;;;;;;;;-144.31;100.00;74323.47;5026641;28;19921;-73
2021/06/25 01:32:24;;;;;;;;;;;;;;;-144.31;100.00;74311.50;5023559;28;20342;-73
2021/06/25 01:34:52;;;;;;;;;;;;;;;-144.31;100.00;74303.50;5021949;28;20434;-73
2021/06/25 01:37:21;;;;;;;;;;;;;;;-144.31;100.00;74309.50;5021762;28;20034;-73
2021/06/25 01:39:50;;;;;;;;;;;;;;;-144.31;100.00;74307.50;5024520;28;19921;-73
2021/06/25 01:42:16;;;;;;;;;;;;;;;-144.31;100.00;74317.50;5026104;28;20632;-73
2021/06/25 01:44:44;;;;;;;;;;;;;;;-144.31;100.00;74313.50;5021913;28;19925;-73
2021/06/25 01:47:09;;;;;;;;;;;;;;;-144.31;100.00;74301.50;5016027;28;19921;-74
2021/06/25 01:49:36;;;;;;;;;;;;;;;-144.31;100.00;74319.50;5023432;28;19917;-73
2021/06/25 01:52:02;;;;;;;;;;;;;;;-144.31;100.00;74277.56;5022400;28;19979;-73
2021/06/25 01:54:27;;;;;;;;;;;;;;;-144.31;100.00;74255.59;5020793;28;19933;-74
2021/06/25 01:56:55;;;;;;;;;;;;;;;-144.31;100.00;74237.63;5020995;28;19917;-73
2021/06/25 01:59:21;;;;;;;;;;;;;;;-144.31;100.00;74253.59;5028572;28;19943;-74
2021/06/25 02:01:49;;;;;;;;;;;;;;;-144.31;100.00;74271.56;5017992;28;20012;-73
2021/06/25 02:04:17;;;;;;;;;;;;;;;-144.31;100.00;74275.56;5022927;28;20335;-73
2021/06/25 02:06:42;;;;;;;;;;;;;;;-144.31;100.00;74303.50;5027824;28;19925;-73
2021/06/25 02:09:10;;;;;;;;;;;;;;;-144.31;100.00;74309.50;5027111;28;19937;-73
2021/06/25 02:11:37;;;;;;;;;;;;;;;-144.31;100.00;74339.44;5021037;28;19921;-73
2021/06/25 02:14:05;;;;;;;;;;;;;;;-144.31;100.00;74351.44;5027030;28;20019;-76
2021/06/25 02:16:31;;;;;;;;;;;;;;;-144.31;100.00;74353.44;5023439;28;20003;-73
2021/06/25 02:18:56;;;;;;;;;;;;;;;-144.31;100.00;74373.41;5009971;28;19921;-73
2021/06/25 02:21:21;;;;;;;;;;;;;;;-144.31;100.00;74379.38;5024247;28;19925;-72
2021/06/25 02:23:47;;;;;;;;;;;;;;;-144.31;100.00;74391.38;5021741;28;20011;-71
2021/06/25 02:26:17;;;;;;;;;;;;;;;-144.31;100.00;74401.34;5020177;28;19960;-72
2021/06/25 02:28:43;;;;;;;;;;;;;;;-144.31;100.00;74417.31;5019318;28;19928;-71
2021/06/25 02:31:08;;;;;;;;;;;;;;;-144.31;100.00;74425.31;5020096;28;19921;-73
2021/06/25 02:33:33;;;;;;;;;;;;;;;-144.31;100.00;74433.31;5021759;28;19921;-71
2021/06/25 02:35:59;;;;;;;;;;;;;;;-144.31;100.00;74425.31;5033723;28;20462;-72
2021/06/25 02:38:26;;;;;;;;;;;;;;;-144.31;100.00;74425.31;5024228;28;20342;-71
2021/06/25 02:40:52;;;;;;;;;;;;;;;-144.31;100.00;74429.31;5020673;28;20272;-72
2021/06/25 02:43:17;;;;;;;;;;;;;;;-144.31;100.00;74423.31;5024044;28;19924;-71
2021/06/25 02:45:42;;;;;;;;;;;;;;;-144.31;100.00;74431.31;5021838;28;20422;-72
2021/06/25 02:48:08;;;;;;;;;;;;;;;-144.31;100.00;74417.31;5035367;28;20061;-71
2021/06/25 02:50:33;;;;;;;;;;;;;;;-144.31;100.00;74415.34;5027929;28;19939;-72
2021/06/25 02:52:59;;;;;;;;;;;;;;;-144.31;100.00;74423.31;5021014;28;20051;-73
2021/06/25 02:55:24;;;;;;;;;;;;;;;-144.31;100.00;74395.38;5018616;28;20319;-73
2021/06/25 02:57:49;;;;;;;;;;;;;;;-144.31;100.00;74407.34;5021906;28;19917;-72
2021/06/25 03:00:16;;;;;;;;;;;;;;;-144.31;100.00;74403.34;5021656;28;19985;-72
2021/06/25 03:02:44;;;;;;;;;;;;;;;-144.31;100.00;74395.38;5019137;28;19922;-72
2021/06/25 03:05:11;;;;;;;;;;;;;;;-144.31;100.00;74389.38;5027661;28;19925;-73
2021/06/25 03:07:36;;;;;;;;;;;;;;;-144.31;100.00;74395.38;5018540;28;20000;-72
2021/06/25 03:10:03;;;;;;;;;;;;;;;-144.31;100.00;74385.38;5021333;28;20020;-72
2021/06/25 03:12:30;;;;;;;;;;;;;;;-144.31;100.00;74399.34;5019166;28;19921;-75
2021/06/25 03:14:56;;;;;;;;;;;;;;;-144.31;100.00;74387.38;5018812;28;20284;-72
2021/06/25 03:17:21;;;;;;;;;;;;;;;-144.31;100.00;74415.34;5023929;28;19940;-73
2021/06/25 03:19:46;;;;;;;;;;;;;;;-144.31;100.00;74429.31;5021488;28;20322;-72
2021/06/25 03:22:12;;;;;;;;;;;;;;;-144.31;100.00;74433.31;5004484;28;19928;-72
2021/06/25 03:24:37;;;;;;;;;;;;;;;-144.31;100.00;74433.31;5020119;28;19948;-72
2021/06/25 03:27:03;;;;;;;;;;;;;;;-144.31;100.00;74445.28;5019972;28;20517;-72
2021/06/25 03:29:28;;;;;;;;;;;;;;;-144.31;100.00;74459.25;5027111;28;19917;-73
2021/06/25 03:31:54;;;;;;;;;;;;;;;-144.31;100.00;74453.25;5010389;28;19921;-74
2021/06/25 03:34:19;;;;;;;;;;;;;;;-144.31;100.00;74453.25;5018437;28;20132;-73
2021/06/25 03:36:44;;;;;;;;;;;;;;;-144.31;100.00;74463.25;5021138;28;19917;-73
2021/06/25 03:39:10;;;;;;;;;;;;;;;-144.31;100.00;74475.22;5019727;28;19925;-73
2021/06/25 03:41:35;;;;;;;;;;;;;;;-144.31;100.00;74489.22;5020074;28;20467;-72
2021/06/25 03:44:01;;;;;;;;;;;;;;;-144.31;100.00;74481.22;5019444;28;20283;-73
2021/06/25 03:46:26;;;;;;;;;;;;;;;-144.31;100.00;74473.22;5025737;28;20462;-73
2021/06/25 03:48:51;;;;;;;;;;;;;;;-144.31;100.00;74459.25;5040113;28;19921;-73
2021/06/25 03:51:18;;;;;;;;;;;;;;;-144.31;100.00;74465.25;5020029;28;20507;-73
2021/06/25 03:53:43;;;;;;;;;;;;;;;-144.31;100.00;74475.22;5025473;28;19917;-73
2021/06/25 03:56:12;;;;;;;;;;;;;;;-144.31;100.00;74475.22;5019642;28;20003;-73
2021/06/25 03:58:55;;;;;;;;;;;;;;;-144.31;100.00;74463.25;5017656;28;20383;-73
2021/06/25 04:01:21;;;;;;;;;;;;;;;-144.31;100.00;74453.25;5016320;28;19948;-73
2021/06/25 04:03:47;;;;;;;;;;;;;;;-144.31;100.00;74455.25;5016713;28;19921;-73
2021/06/25 04:06:12;;;;;;;;;;;;;;;-144.31;100.00;74455.25;5024459;28;19932;-73
2021/06/25 04:08:38;;;;;;;;;;;;;;;-144.31;100.00;74445.28;5017047;28;19925;-73
2021/06/25 04:11:04;;;;;;;;;;;;;;;-144.31;100.00;74431.31;5007180;28;19917;-73
2021/06/25 04:13:33;;;;;;;;;;;;;;;-144.31;100.00;74423.31;5019122;28;19921;-73
2021/06/25 04:15:58;;;;;;;;;;;;;;;-144.31;100.00;74425.31;5023575;28;19941;-74
2021/06/25 04:18:24;;;;;;;;;;;;;;;-144.31;100.00;74431.31;5024129;28;19921;-73
2021/06/25 04:20:50;;;;;;;;;;;;;;;-144.31;100.00;74411.34;5019908;28;19932;-73
2021/06/25 04:23:16;;;;;;;;;;;;;;;-144.31;100.00;74405.34;5025248;28;19917;-73
2021/06/25 04:25:41;;;;;;;;;;;;;;;-144.31;100.00;74403.34;5023335;28;19948;-74
2021/06/25 04:28:07;;;;;;;;;;;;;;;-144.31;100.00;74379.38;5019529;28;19917;-73
2021/06/25 04:30:36;;;;;;;;;;;;;;;-144.31;100.00;74363.41;5022582;28;19921;-74
2021/06/25 04:33:02;;;;;;;;;;;;;;;-144.31;100.00;74351.44;5023732;28;20310;-74
2021/06/25 04:35:28;;;;;;;;;;;;;;;-144.31;100.00;74355.44;5018638;28;19921;-73
2021/06/25 04:37:54;;;;;;;;;;;;;;;-144.31;100.00;74343.44;5022285;28;19917;-73
2021/06/25 04:40:22;;;;;;;;;;;;;;;-144.31;100.00;74343.44;5024033;28;19929;-73
2021/06/25 04:42:47;;;;;;;;;;;;;;;-144.31;100.00;74335.47;5018364;28;19929;-73
2021/06/25 04:45:13;;;;;;;;;;;;;;;-144.31;100.00;74341.44;5015502;28;19932;-74
2021/06/25 04:47:41;;;;;;;;;;;;;;;-144.31;100.00;74341.44;5018083;28;20105;-73
2021/06/25 04:50:07;;;;;;;;;;;;;;;-144.31;100.00;74331.47;5026441;28;20438;-73
2021/06/25 04:52:32;;;;;;;;;;;;;;;-144.31;100.00;74329.47;5024941;28;19917;-73
2021/06/25 04:54:58;;;;;;;;;;;;;;;-144.31;100.00;74293.53;5023990;28;19925;-73
2021/06/25 04:57:23;;;;;;;;;;;;;;;-144.31;100.00;74271.56;5020294;28;20390;-73
2021/06/25 04:59:51;;;;;;;;;;;;;;;-144.31;100.00;74293.53;5014078;28;19917;-73
2021/06/25 05:02:17;;;;;;;;;;;;;;;-144.31;100.00;74277.56;5025345;28;20367;-74
2021/06/25 05:04:44;;;;;;;;;;;;;;;-144.31;100.00;74271.56;5019423;28;19921;-74
2021/06/25 05:07:12;;;;;;;;;;;;;;;-144.31;100.00;74293.53;5016766;28;19925;-74
2021/06/25 05:09:37;;;;;;;;;;;;;;;-144.31;100.00;74271.56;5016943;28;19932;-74
2021/06/25 05:12:03;;;;;;;;;;;;;;;-144.31;100.00;74265.56;5017878;28;19936;-73
2021/06/25 05:14:29;;;;;;;;;;;;;;;-144.31;100.00;74265.56;5017305;28;20282;-74
2021/06/25 05:16:54;;;;;;;;;;;;;;;-144.31;100.00;74295.53;5018958;28;20342;-73
2021/06/25 05:19:22;;;;;;;;;;;;;;;-144.31;100.00;74301.50;5028137;28;20002;-73
2021/06/25 05:21:49;;;;;;;;;;;;;;;-144.31;100.00;74309.50;5023642;28;19959;-74
2021/06/25 05:24:17;;;;;;;;;;;;;;;-144.31;100.00;74311.50;5026649;28;19917;-73
2021/06/25 05:26:42;;;;;;;;;;;;;;;-144.31;100.00;74305.50;5027701;28;19929;-74
2021/06/25 05:29:08;;;;;;;;;;;;;;;-144.31;100.00;74315.50;5032253;28;19928;-75
2021/06/25 05:31:33;;;;;;;;;;;;;;;-144.31;100.00;74339.44;5020459;28;20031;-73
2021/06/25 05:33:59;;;;;;;;;;;;;;;-144.31;100.00;74331.47;5017540;28;19917;-73
2021/06/25 05:36:24;;;;;;;;;;;;;;;-144.31;100.00;74331.47;5024382;28;19929;-73
2021/06/25 05:38:54;;;;;;;;;;;;;;;-144.31;100.00;74325.47;5017209;28;19925;-75
2021/06/25 05:41:19;;;;;;;;;;;;;;;-144.31;100.00;74299.53;5018019;28;19947;-75
2021/06/25 05:43:45;;;;;;;;;;;;;;;-144.31;100.00;74239.63;5021979;28;19920;-73
2021/06/25 05:46:11;;;;;;;;;;;;;;;-144.31;100.00;74247.59;5024380;28;19929;-73
2021/06/25 05:48:36;;;;;;;;;;;;;;;-144.31;100.00;74271.56;5019112;28;19963;-73
2021/06/25 05:51:02;;;;;;;;;;;;;;;-144.31;100.00;74281.56;5020704;28;19971;-72
2021/06/25 05:53:30;;;;;;;;;;;;;;;-144.31;100.00;74295.53;5021389;28;19952;-74
2021/06/25 05:55:55;;;;;;;;;;;;;;;-144.31;100.00;74297.53;5018076;28;19921;-73
2021/06/25 05:58:24;;;;;;;;;;;;;;;-144.31;100.00;74279.56;5025168;28;19925;-74
2021/06/25 06:00:49;;;;;;;;;;;;;;;-144.31;100.00;74271.56;5019655;28;19927;-74
2021/06/25 06:03:14;;;;;;;;;;;;;;;-144.31;100.00;74271.56;5022924;28;19921;-73
2021/06/25 06:05:40;;;;;;;;;;;;;;;-144.31;100.00;74273.56;5019371;28;19935;-74
2021/06/25 06:08:05;;;;;;;;;;;;;;;-144.31;100.00;74269.56;5020189;28;19994;-73
2021/06/25 06:10:31;;;;;;;;;;;;;;;-144.31;100.00;74291.53;5027910;28;20378;-74
2021/06/25 06:12:56;;;;;;;;;;;;;;;-144.31;100.00;74299.53;5024037;28;20299;-73
2021/06/25 06:15:22;;;;;;;;;;;;;;;-144.31;100.00;74301.50;5019254;28;19996;-73
2021/06/25 06:17:48;;;;;;;;;;;;;;;-144.31;100.00;74295.53;5018550;28;19928;-73
2021/06/25 06:20:19;;;;;;;;;;;;;;;-144.31;100.00;74303.50;5038528;28;19921;-74
2021/06/25 06:31:11;;;;;;;;;;;;;;;-144.31;100.00;74307.50;5016397;28;19925;-71
2021/06/25 06:33:49;;;;;;;;;;;;;;;-144.31;100.00;74313.50;5021752;28;20330;-70
2021/06/25 06:38:47;;;;;;;;;;;;;;;-144.31;100.00;74329.47;5020023;28;19921;-74
2021/06/25 06:41:12;;;;;;;;;;;;;;;-144.31;100.00;74323.47;5020136;28;19928;-73
2021/06/25 06:43:39;;;;;;;;;;;;;;;-144.31;100.00;74335.47;5018237;28;19928;-72
2021/06/25 06:46:04;;;;;;;;;;;;;;;-144.31;100.00;74341.44;5015173;28;20011;-73
2021/06/25 06:48:30;;;;;;;;;;;;;;;-144.31;100.00;74349.44;5019005;28;20023;-73
2021/06/25 06:50:55;;;;;;;;;;;;;;;-144.31;100.00;74337.47;5015803;28;20075;-73
2021/06/25 06:53:21;;;;;;;;;;;;;;;-144.31;100.00;74353.44;5015950;28;20330;-74
2021/06/25 06:55:46;;;;;;;;;;;;;;;-144.31;100.00;74337.47;5020301;28;19921;-74
2021/06/25 06:58:12;;;;;;;;;;;;;;;-144.31;100.00;74335.47;5025141;28;20306;-74
2021/06/25 07:00:38;;;;;;;;;;;;;;;-144.31;100.00;74351.44;5015173;28;20295;-74
2021/06/25 07:03:04;;;;;;;;;;;;;;;-144.31;100.00;74341.44;5015593;28;19947;-74
2021/06/25 07:05:29;;;;;;;;;;;;;;;-144.31;100.00;74349.44;5021994;28;20330;-74
2021/06/25 07:07:55;;;;;;;;;;;;;;;-144.31;100.00;74339.44;5032227;28;19980;-73
2021/06/25 07:10:22;;;;;;;;;;;;;;;-144.31;100.00;74323.47;5039113;28;19932;-74
2021/06/25 07:12:48;;;;;;;;;;;;;;;-144.31;100.00;74339.44;5036343;28;20336;-73
2021/06/25 07:15:13;;;;;;;;;;;;;;;-144.31;100.00;74331.47;5035281;28;19924;-73
2021/06/25 07:17:38;;;;;;;;;;;;;;;-144.31;100.00;74319.50;5036960;28;19925;-74
2021/06/25 07:20:05;;;;;;;;;;;;;;;-144.31;100.00;74317.50;5043207;28;19956;-72
2021/06/25 07:22:33;;;;;;;;;;;;;;;-144.31;100.00;74311.50;5039776;28;19994;-73
2021/06/25 07:25:01;;;;;;;;;;;;;;;-144.31;100.00;74289.53;5045898;28;20086;-75
2021/06/25 07:27:26;;;;;;;;;;;;;;;-144.31;100.00;74307.50;5048630;28;19966;-76
2021/06/25 07:29:52;;;;;;;;;;;;;;;-144.31;100.00;74269.56;5066422;28;20371;-74
2021/06/25 07:32:17;;;;;;;;;;;;;;;-144.31;100.00;74259.59;5041002;28;19917;-74
2021/06/25 07:34:43;;;;;;;;;;;;;;;-144.31;100.00;74261.59;5069697;28;20299;-74
2021/06/25 07:37:08;;;;;;;;;;;;;;;-144.31;100.00;74265.56;5039978;28;19921;-74
2021/06/25 07:39:33;;;;;;;;;;;;;;;-144.31;100.00;74267.56;5054632;28;20010;-74
2021/06/25 07:42:01;;;;;;;;;;;;;;;-144.31;100.00;74259.59;5038765;28;19966;-74
2021/06/25 07:44:27;;;;;;;;;;;;;;;-144.31;100.00;74259.59;5035314;28;19924;-75
2021/06/25 07:46:54;;;;;;;;;;;;;;;-144.31;100.00;74251.59;5041777;28;19925;-73
2021/06/25 07:49:20;;;;;;;;;;;;;;;-144.31;100.00;74257.59;5038781;28;19956;-74
2021/06/25 07:51:45;;;;;;;;;;;;;;;-144.31;100.00;74237.63;5038662;28;20343;-75
2021/06/25 07:54:11;;;;;;;;;;;;;;;-144.31;100.00;74209.66;5035308;28;20091;-75
2021/06/25 07:56:38;;;;;;;;;;;;;;;-144.31;100.00;74215.66;5072606;28;19974;-74
2021/06/25 07:59:04;;;;;;;;;;;;;;;-144.31;100.00;74239.63;5042132;28;19924;-74
2021/06/25 08:01:29;;;;;;;;;;;;;;;-144.31;100.00;74253.59;5059102;28;19920;-75
2021/06/25 08:03:55;;;;;;;;;;;;;;;-144.31;100.00;74261.59;5061024;28;19917;-74
2021/06/25 08:06:20;;;;;;;;;;;;;;;-144.31;100.00;74309.50;5036395;28;19972;-74
2021/06/25 08:08:46;;;;;;;;;;;;;;;-144.31;100.00;74335.47;5035386;28;19920;-74
2021/06/25 08:11:13;;;;;;;;;;;;;;;-144.31;100.00;74315.50;5036968;28;19916;-74
2021/06/25 08:13:39;;;;;;;;;;;;;;;-144.31;100.00;74329.47;5046792;28;19928;-74
2021/06/25 08:16:04;;;;;;;;;;;;;;;-144.31;100.00;74299.53;5050366;28;20175;-74
2021/06/25 08:18:30;;;;;;;;;;;;;;;-144.31;100.00;74291.53;5044514;28;20227;-75
2021/06/25 08:20:55;;;;;;;;;;;;;;;-144.31;100.00;74283.53;5050477;28;20628;-75
2021/06/25 08:23:21;;;;;;;;;;;;;;;-144.31;100.00;74255.59;5044887;28;19952;-74
2021/06/25 08:25:46;;;;;;;;;;;;;;;-144.31;100.00;74253.59;5045052;28;19925;-74
2021/06/25 08:28:12;;;;;;;;;;;;;;;-144.31;100.00;74271.56;5045732;28;19922;-76
2021/06/25 08:30:38;;;;;;;;;;;;;;;-144.31;100.00;74289.53;5069474;28;20398;-75
2021/06/25 08:33:08;;;;;;;;;;;;;;;-144.31;100.00;74309.50;5048920;28;19980;-75
2021/06/25 08:35:33;;;;;;;;;;;;;;;-144.31;100.00;74315.50;5045224;28;19921;-74
2021/06/25 08:37:58;;;;;;;;;;;;;;;-144.31;100.00;74333.47;5027824;28;19932;-76
2021/06/25 08:40:24;;;;;;;;;;;;;;;-144.31;100.00;74337.47;5028532;28;20368;-76
2021/06/25 08:42:50;;;;;;;;;;;;;;;-144.31;100.00;74359.41;5026020;28;20921;-75
2021/06/25 08:45:16;;;;;;;;;;;;;;;-144.31;100.00;74359.41;5040851;28;20232;-76
2021/06/25 08:47:42;;;;;;;;;;;;;;;-144.31;100.00;74377.38;5043727;28;19967;-76
2021/06/25 08:50:09;;;;;;;;;;;;;;;-144.31;100.00;74359.41;5026348;28;19996;-77
2021/06/25 08:52:34;;;;;;;;;;;;;;;-144.31;100.00;74307.50;5024505;28;20003;-77
2021/06/25 08:55:05;;;;;;;;;;;;;;;-144.31;100.00;74319.50;5027496;28;19924;-77
2021/06/25 08:57:34;;;;;;;;;;;;;;;-144.31;100.00;74281.56;5041180;28;19954;-75
2021/06/25 09:00:00;;;;;;;;;;;;;;;-144.31;100.00;74277.56;5041574;28;19916;-76
2021/06/25 09:02:30;;;;;;;;;;;;;;;-144.31;100.00;74231.63;5041269;28;20318;-74
2021/06/25 09:04:56;;;;;;;;;;;;;;;-144.31;100.00;74151.78;5041218;28;20366;-74
2021/06/25 09:07:37;;;;;;;;;;;;;;;-144.31;100.00;74121.81;5073034;28;19917;-74
2021/06/25 09:10:05;;;;;;;;;;;;;;;-144.31;100.00;74075.91;5039222;28;19925;-75
2021/06/25 09:12:30;;;;;;;;;;;;;;;-144.31;100.00;74025.97;5045435;28;19917;-73
2021/06/25 09:15:05;;;;;;;;;;;;;;;-144.31;100.00;74000.03;5062385;28;19940;-73
2021/06/25 09:17:30;;;;;;;;;;;;;;;-144.31;100.00;73954.09;5054382;28;19921;-74
2021/06/25 09:19:56;;;;;;;;;;;;;;;-144.31;100.00;73910.19;5041848;28;20039;-73
2021/06/25 09:22:21;;;;;;;;;;;;;;;-144.31;100.00;73912.19;5062502;28;19999;-74
2021/06/25 09:24:59;;;;;;;;;;;;;;;-144.31;100.00;73822.34;5073890;28;19974;-76
2021/06/25 09:27:25;;;;;;;;;;;;;;;-144.31;100.00;73756.47;5042498;28;19928;-74
2021/06/25 09:29:52;;;;;;;;;;;;;;;-144.31;100.00;73720.53;5041474;28;20387;-75
2021/06/25 09:32:17;;;;;;;;;;;;;;;-144.31;100.00;73724.50;5038571;28;19917;-74
2021/06/25 09:34:51;;;;;;;;;;;;;;;-144.31;100.00;73658.63;5048630;28;19947;-74
2021/06/25 09:37:17;;;;;;;;;;;;;;;-144.31;100.00;73668.63;5044536;28;20004;-74
2021/06/25 09:39:56;;;;;;;;;;;;;;;-144.31;100.00;73674.59;5048360;28;20005;-74
2021/06/25 09:42:21;;;;;;;;;;;;;;;-144.31;100.00;73656.63;5053806;28;20375;-75
2021/06/25 09:44:59;;;;;;;;;;;;;;;-144.31;100.00;73796.38;5037775;28;19921;-74
2021/06/25 09:47:31;;;;;;;;;;;;;;;-144.31;100.00;73880.25;5042639;28;19920;-76
2021/06/25 09:50:16;;;;;;;;;;;;;;;-144.31;100.00;73872.25;5039117;28;20062;-70
2021/06/25 09:52:50;;;;;;;;;;;;;;;-144.31;100.00;73860.28;5041081;28;19924;-72
2021/06/25 09:55:18;;;;;;;;;;;;;;;-144.31;100.00;73858.28;5037547;28;19921;-70
2021/06/25 09:58:11;;;;;;;;;;;;;;;-144.31;100.00;73838.31;5041908;28;20191;-70
2021/06/25 10:01:21;;;;;;;;;;;;;;;-144.31;100.00;73878.25;5047841;28;20003;-70
2021/06/25 10:03:31;;;;;;;;;;;;;;;-144.31;100.00;74010.00;5039540;28;19921;-70
2021/06/25 10:06:06;;;;;;;;;;;;;;;-144.31;100.00;74079.88;5040935;28;20349;-73
2021/06/25 10:08:34;;;;;;;;;;;;;;;-144.31;100.00;74081.88;5038568;28;20016;-70
2021/06/25 10:11:02;;;;;;;;;;;;;;;-144.31;100.00;74133.78;5041085;28;20007;-71
2021/06/25 10:13:29;;;;;;;;;;;;;;;-144.31;100.00;74193.69;5038599;28;20399;-70
2021/06/25 10:15:57;;;;;;;;;;;;;;;-144.31;100.00;74231.63;5042087;28;19924;-71
2021/06/25 10:18:24;;;;;;;;;;;;;;;-144.31;100.00;74255.59;5038617;28;19921;-70
2021/06/25 10:20:50;;;;;;;;;;;;;;;-144.31;100.00;74277.56;5041414;28;20345;-70
2021/06/25 10:23:16;;;;;;;;;;;;;;;-144.31;100.00;74305.50;5038775;28;19924;-70
2021/06/25 10:25:43;;;;;;;;;;;;;;;-144.31;100.00;74319.50;5040842;28;20373;-71
2021/06/25 10:28:10;;;;;;;;;;;;;;;-144.31;100.00;74319.50;5039258;28;20350;-70
2021/06/25 10:30:38;;;;;;;;;;;;;;;-144.31;100.00;74303.50;5041009;28;19917;-71
2021/06/25 10:33:06;;;;;;;;;;;;;;;-144.31;100.00;74291.53;5039071;28;19924;-70
2021/06/25 10:35:33;;;;;;;;;;;;;;;-144.31;100.00;74257.59;5040957;28;20342;-70
2021/06/25 10:37:59;;;;;;;;;;;;;;;-144.31;100.00;74237.63;5038946;28;19920;-71
2021/06/25 10:40:28;;;;;;;;;;;;;;;-144.31;100.00;74215.66;5040259;28;19925;-72
2021/06/25 10:42:55;;;;;;;;;;;;;;;-144.31;100.00;74163.75;5041235;28;19920;-71
2021/06/25 10:45:39;;;;;;;;;;;;;;;-144.31;100.00;74093.88;5038584;28;19921;-71
2021/06/25 10:48:05;;;;;;;;;;;;;;;-144.31;100.00;74049.94;5053515;28;19971;-72
2021/06/25 10:50:30;;;;;;;;;;;;;;;-144.31;100.00;74027.97;5047162;28;19917;-71
2021/06/25 10:53:08;;;;;;;;;;;;;;;-144.31;100.00;74043.94;5037798;28;19935;-71
2021/06/25 10:55:44;;;;;;;;;;;;;;;-144.31;100.00;74099.84;5039597;28;19935;-70
2021/06/25 10:58:10;;;;;;;;;;;;;;;-144.31;100.00;74113.84;5071927;28;19959;-71
2021/06/25 11:00:38;;;;;;;;;;;;;;;-144.31;100.00;74139.78;5040277;28;19928;-71
2021/06/25 11:03:04;;;;;;;;;;;;;;;-144.31;100.00;74131.81;5063414;28;20019;-70
2021/06/25 11:05:30;;;;;;;;;;;;;;;-144.31;100.00;74111.84;5039222;28;20408;-70
2021/06/25 11:07:56;;;;;;;;;;;;;;;-144.31;100.00;74153.75;5062601;28;20284;-71
2021/06/25 11:10:23;;;;;;;;;;;;;;;-144.31;100.00;74125.81;5036921;28;19929;-72
2021/06/25 11:12:50;;;;;;;;;;;;;;;-144.31;100.00;74079.88;5056757;28;20367;-70
2021/06/25 11:15:33;;;;;;;;;;;;;;;-144.31;100.00;74081.88;5036318;28;19917;-71
2021/06/25 11:17:59;;;;;;;;;;;;;;;-144.31;100.00;74002.03;5035543;28;19917;-70
2021/06/25 11:20:40;;;;;;;;;;;;;;;-144.31;100.00;73958.09;5039229;28;20387;-70
2021/06/25 11:23:09;;;;;;;;;;;;;;;-144.31;100.00;73950.13;5038108;28;19925;-71
2021/06/25 11:25:51;;;;;;;;;;;;;;;-144.31;100.00;73972.06;5037391;28;20389;-71
2021/06/25 11:28:25;;;;;;;;;;;;;;;-144.31;100.00;73982.06;5035857;28;19924;-71
2021/06/25 11:30:50;;;;;;;;;;;;;;;-144.31;100.00;73962.09;5036352;28;19927;-71
2021/06/25 11:33:25;;;;;;;;;;;;;;;-144.31;100.00;73906.19;5036220;28;19920;-73
2021/06/25 11:35:50;;;;;;;;;;;;;;;-144.31;100.00;73892.22;5039502;28;19942;-72
2021/06/25 11:38:16;;;;;;;;;;;;;;;-144.31;100.00;73898.22;5069766;28;20371;-71
2021/06/25 11:40:45;;;;;;;;;;;;;;;-144.31;100.00;73910.19;5040216;28;19986;-70
2021/06/25 11:43:12;;;;;;;;;;;;;;;-144.31;100.00;73788.41;5069588;28;20337;-71
2021/06/25 11:45:37;;;;;;;;;;;;;;;-144.31;100.00;73790.41;5039766;28;20023;-70
2021/06/25 11:48:06;;;;;;;;;;;;;;;-144.31;100.00;73780.41;5069705;28;19999;-72
2021/06/25 11:50:37;;;;;;;;;;;;;;;-144.31;100.00;73908.19;5041237;28;20372;-72
2021/06/25 11:53:04;;;;;;;;;;;;;;;-144.31;100.00;73796.38;5038424;28;19928;-70
2021/06/25 11:55:29;;;;;;;;;;;;;;;-144.31;100.00;73482.97;5039748;28;19923;-71
2021/06/25 11:57:55;;;;;;;;;;;;;;;-144.31;100.00;73534.88;5037443;28;19917;-71
2021/06/25 12:00:21;;;;;;;;;;;;;;;-144.31;100.00;73441.03;5040964;28;19924;-71
2021/06/25 12:02:50;;;;;;;;;;;;;;;-144.31;100.00;73512.91;5036211;28;19921;-72
2021/06/25 12:05:20;;;;;;;;;;;;;;;-144.31;100.00;73325.25;5036553;28;20070;-72
2021/06/25 12:07:46;;;;;;;;;;;;;;;-144.31;100.00;73297.31;5040080;28;19917;-71
2021/06/25 12:10:18;;;;;;;;;;;;;;;-144.31;100.00;73275.34;5036914;28;20015;-72
2021/06/25 12:12:43;;;;;;;;;;;;;;;-144.31;100.00;73375.16;5046001;28;20371;-71
2021/06/25 12:15:13;;;;;;;;;;;;;;;-144.31;100.00;73568.81;5037175;28;19957;-71
2021/06/25 12:17:48;;;;;;;;;;;;;;;-144.31;100.00;73780.41;5039591;28;20309;-71
2021/06/25 12:20:18;;;;;;;;;;;;;;;-144.31;100.00;73846.28;5070517;28;19921;-71
2021/06/25 12:22:47;;;;;;;;;;;;;;;-144.31;100.00;73854.28;5037904;28;19928;-71
2021/06/25 12:25:14;;;;;;;;;;;;;;;-144.31;100.00;73792.41;5038969;28;19921;-71
2021/06/25 12:27:41;;;;;;;;;;;;;;;-144.31;100.00;73734.50;5037992;28;19916;-71
2021/06/25 12:30:08;;;;;;;;;;;;;;;-144.31;100.00;73660.63;5047336;28;20390;-71